createdAt,value
2019-04-03T00:01:06.807Z,13.43
2019-04-03T00:03:34.177Z,14.73
2019-04-03T00:06:00.619Z,13.87
2019-04-03T00:08:26.741Z,13.80
2019-04-03T00:10:52.752Z,14.13
2019-04-03T00:13:18.898Z,16.47
2019-04-03T00:15:45.251Z,14.40
2019-04-03T00:18:11.353Z,13.20
2019-04-03T00:20:37.423Z,13.90
2019-04-03T00:23:03.446Z,13.80
2019-04-03T00:25:29.503Z,13.30
2019-04-03T00:27:55.527Z,13.40
2019-04-03T00:30:22.487Z,15.27
2019-04-03T00:32:48.848Z,13.63
2019-04-03T00:35:14.910Z,15.70
2019-04-03T00:37:40.927Z,16.73
2019-04-03T00:40:07.481Z,15.43
2019-04-03T00:42:33.697Z,14.77
2019-04-03T00:44:59.895Z,15.33
2019-04-03T00:47:26.057Z,14.50
2019-04-03T00:49:52.158Z,15.13
2019-04-03T00:52:18.149Z,15.97
2019-04-03T00:54:44.367Z,15.30
2019-04-03T00:57:10.379Z,15.43
2019-04-03T00:59:36.615Z,15.67
2019-04-03T01:02:02.697Z,14.50
2019-04-03T01:04:29.066Z,13.87
2019-04-03T01:06:55.213Z,15.60
2019-04-03T01:09:22.849Z,14.20
2019-04-03T01:11:51.732Z,15.70
2019-04-03T01:14:17.752Z,15.73
2019-04-03T01:16:43.760Z,15.73
2019-04-03T01:19:10.077Z,14.73
2019-04-03T01:21:37.223Z,15.23
2019-04-03T01:24:03.794Z,15.57
2019-04-03T01:26:29.915Z,15.17
2019-04-03T01:28:56.052Z,16.10
2019-04-03T01:31:22.182Z,15.50
2019-04-03T01:33:48.198Z,14.67
2019-04-03T01:36:14.173Z,15.90
2019-04-03T01:38:40.332Z,15.30
2019-04-03T01:41:06.330Z,16.60
2019-04-03T01:43:32.328Z,15.63
2019-04-03T01:45:58.332Z,16.10
2019-04-03T01:48:24.339Z,16.00
2019-04-03T01:50:50.339Z,16.90
2019-04-03T01:53:16.402Z,15.70
2019-04-03T01:55:42.657Z,18.33
2019-04-03T01:58:08.663Z,15.40
2019-04-03T02:00:35.809Z,16.93
2019-04-03T02:03:02.663Z,17.00
2019-04-03T02:05:28.687Z,17.53
2019-04-03T02:07:54.814Z,17.97
2019-04-03T02:10:21.961Z,17.30
2019-04-03T02:12:50.646Z,16.87
2019-04-03T02:15:16.133Z,17.80
2019-04-03T02:17:42.206Z,17.63
2019-04-03T02:20:08.466Z,17.63
2019-04-03T02:22:34.459Z,15.87
2019-04-03T02:25:01.893Z,18.57
2019-04-03T02:27:28.221Z,17.60
2019-04-03T02:29:54.265Z,16.60
2019-04-03T02:32:23.126Z,16.53
2019-04-03T02:34:48.441Z,16.13
2019-04-03T02:37:17.020Z,16.50
2019-04-03T02:39:42.540Z,16.63
2019-04-03T02:42:09.837Z,15.83
2019-04-03T02:44:36.112Z,16.33
2019-04-03T02:47:02.160Z,16.37
2019-04-03T02:49:28.765Z,17.00
2019-04-03T02:51:55.611Z,18.10
2019-04-03T02:54:29.278Z,16.97
2019-04-03T02:56:56.656Z,16.50
2019-04-03T02:59:25.255Z,15.90
2019-04-03T03:01:50.806Z,17.30
2019-04-03T03:04:20.545Z,18.10
2019-04-03T03:06:45.047Z,17.23
2019-04-03T03:09:13.486Z,16.97
2019-04-03T03:11:39.806Z,19.20
2019-04-03T03:14:07.547Z,18.60
2019-04-03T03:16:34.120Z,17.43
2019-04-03T03:19:01.725Z,20.60
2019-04-03T03:21:29.502Z,16.10
2019-04-03T03:23:57.136Z,16.17
2019-04-03T03:26:23.592Z,18.13
2019-04-03T03:28:49.955Z,19.03
2019-04-03T03:31:16.336Z,17.60
2019-04-03T03:33:43.137Z,18.80
2019-04-03T03:36:09.966Z,17.57
2019-04-03T03:38:39.746Z,18.40
2019-04-03T03:41:04.345Z,18.00
2019-04-03T03:43:30.337Z,18.50
2019-04-03T03:45:57.318Z,18.00
2019-04-03T03:48:23.458Z,18.80
2019-04-03T03:50:50.012Z,18.37
2019-04-03T03:53:16.234Z,20.03
2019-04-03T03:55:42.361Z,18.90
2019-04-03T03:58:12.156Z,18.07
2019-04-03T04:00:37.036Z,19.00
2019-04-03T04:03:03.036Z,17.90
2019-04-03T04:05:29.546Z,18.80
2019-04-03T04:07:55.733Z,18.53
2019-04-03T04:10:26.292Z,18.40
2019-04-03T04:12:52.753Z,19.70
2019-04-03T04:15:19.022Z,16.53
2019-04-03T04:17:48.990Z,16.67
2019-04-03T04:20:13.239Z,17.53
2019-04-03T04:22:39.690Z,18.60
2019-04-03T04:25:06.079Z,18.33
2019-04-03T04:27:33.885Z,19.07
2019-04-03T04:30:00.745Z,18.10
2019-04-03T04:32:26.759Z,17.70
2019-04-03T04:34:52.775Z,19.13
2019-04-03T04:37:19.013Z,19.87
2019-04-03T04:39:45.127Z,18.67
2019-04-03T04:42:11.378Z,19.10
2019-04-03T04:44:38.945Z,18.57
2019-04-03T04:47:05.325Z,18.20
2019-04-03T04:49:31.400Z,19.00
2019-04-03T04:51:57.620Z,19.03
2019-04-03T04:54:23.895Z,19.07
2019-04-03T04:56:50.062Z,18.07
2019-04-03T04:59:16.071Z,18.43
2019-04-03T05:01:42.148Z,18.40
2019-04-03T05:04:08.369Z,17.80
2019-04-03T05:06:34.440Z,17.60
2019-04-03T05:09:03.383Z,17.00
2019-04-03T05:11:28.668Z,19.20
2019-04-03T05:13:55.005Z,19.27
2019-04-03T05:16:21.301Z,17.63
2019-04-03T05:18:47.416Z,17.13
2019-04-03T05:21:13.481Z,19.33
2019-04-03T05:23:39.680Z,17.67
2019-04-03T05:26:05.913Z,18.37
2019-04-03T05:28:34.026Z,18.20
2019-04-03T05:31:00.053Z,18.27
2019-04-03T05:33:26.429Z,18.00
2019-04-03T05:35:52.467Z,18.33
2019-04-03T05:38:21.626Z,20.87
2019-04-03T05:40:46.608Z,20.87
2019-04-03T05:43:12.871Z,19.13
2019-04-03T05:45:41.076Z,18.33
2019-04-03T05:48:12.117Z,18.87
2019-04-03T05:50:36.664Z,20.40
2019-04-03T05:53:05.667Z,19.00
2019-04-03T05:55:30.790Z,18.30
2019-04-03T05:57:57.082Z,17.80
2019-04-03T06:00:23.208Z,18.00
2019-04-03T06:02:49.218Z,18.00
2019-04-03T06:05:18.514Z,18.10
2019-04-03T06:07:43.192Z,17.87
2019-04-03T06:10:09.425Z,18.37
2019-04-03T06:12:37.350Z,17.57
2019-04-03T06:15:07.723Z,18.87
2019-04-03T06:17:33.998Z,20.43
2019-04-03T06:20:00.084Z,18.83
2019-04-03T06:22:26.077Z,19.67
2019-04-03T06:24:52.285Z,19.10
2019-04-03T06:27:19.646Z,17.00
2019-04-03T06:29:46.178Z,19.00
2019-04-03T06:32:12.302Z,19.57
2019-04-03T06:34:40.552Z,20.93
2019-04-03T06:37:06.557Z,19.30
2019-04-03T06:39:32.678Z,19.43
2019-04-03T06:41:58.913Z,19.93
2019-04-03T06:44:25.039Z,20.23
2019-04-03T06:46:53.923Z,20.47
2019-04-03T06:49:20.320Z,20.87
2019-04-03T06:51:48.898Z,23.00
2019-04-03T06:54:14.535Z,19.13
2019-04-03T06:56:41.288Z,19.07
2019-04-03T06:59:07.593Z,21.30
2019-04-03T07:01:33.923Z,20.80
2019-04-03T07:04:00.299Z,19.87
2019-04-03T07:06:26.562Z,19.90
2019-04-03T07:08:52.779Z,21.27
2019-04-03T07:11:23.712Z,21.57
2019-04-03T07:13:46.833Z,20.13
2019-04-03T07:16:12.978Z,19.80
2019-04-03T07:18:39.398Z,20.47
2019-04-03T07:21:05.736Z,20.80
2019-04-03T07:23:31.772Z,21.47
2019-04-03T07:25:57.792Z,21.87
2019-04-03T07:28:23.796Z,20.63
2019-04-03T07:30:52.325Z,20.53
2019-04-03T07:33:17.967Z,19.50
2019-04-03T07:35:44.243Z,21.93
2019-04-03T07:38:10.234Z,19.10
2019-04-03T07:40:36.469Z,21.20
2019-04-03T07:43:02.652Z,19.70
2019-04-03T07:45:28.657Z,20.90
2019-04-03T07:47:54.693Z,20.40
2019-04-03T07:50:20.759Z,19.63
2019-04-03T07:52:48.352Z,20.00
2019-04-03T07:55:14.714Z,19.13
2019-04-03T07:57:41.530Z,20.77
2019-04-03T08:00:09.276Z,19.33
2019-04-03T08:02:35.304Z,22.47
2019-04-03T08:05:01.433Z,21.30
2019-04-03T08:07:27.469Z,21.77
2019-04-03T08:09:53.471Z,21.13
2019-04-03T08:12:19.661Z,21.30
2019-04-03T08:14:45.772Z,21.40
2019-04-03T08:17:12.123Z,20.10
2019-04-03T08:19:38.104Z,21.13
2019-04-03T08:22:04.181Z,19.07
2019-04-03T08:24:30.247Z,20.40
2019-04-03T08:26:56.331Z,20.63
2019-04-03T08:29:22.452Z,21.07
2019-04-03T08:31:49.090Z,19.03
2019-04-03T08:34:18.051Z,21.53
2019-04-03T08:36:43.153Z,19.67
2019-04-03T08:39:09.249Z,21.67
2019-04-03T08:41:37.390Z,20.60
2019-04-03T08:44:07.253Z,19.30
2019-04-03T08:46:31.417Z,19.50
2019-04-03T08:48:58.218Z,19.70
2019-04-03T08:51:24.265Z,19.30
2019-04-03T08:53:50.653Z,18.57
2019-04-03T08:56:17.977Z,19.27
2019-04-03T08:58:45.974Z,20.40
2019-04-03T09:01:11.981Z,19.63
2019-04-03T09:03:38.001Z,19.00
2019-04-03T09:06:04.329Z,19.77
2019-04-03T09:08:30.453Z,17.97
2019-04-03T09:10:56.583Z,18.70
2019-04-03T09:13:24.060Z,18.80
2019-04-03T09:15:50.253Z,19.90
2019-04-03T09:18:16.319Z,20.47
2019-04-03T09:20:43.709Z,20.20
2019-04-03T09:23:10.155Z,19.40
2019-04-03T09:25:36.212Z,19.77
2019-04-03T09:28:03.018Z,21.43
2019-04-03T09:30:29.537Z,19.77
2019-04-03T09:32:55.670Z,19.50
2019-04-03T09:35:22.097Z,19.97
2019-04-03T09:37:48.236Z,19.47
2019-04-03T09:40:16.442Z,18.80
2019-04-03T09:42:42.439Z,19.30
2019-04-03T09:45:09.262Z,20.07
2019-04-03T09:47:35.749Z,18.43
2019-04-03T09:50:04.593Z,18.40
2019-04-03T09:52:39.499Z,20.60
2019-04-03T09:55:00.318Z,17.40
2019-04-03T09:57:26.798Z,18.70
2019-04-03T09:59:52.937Z,18.40
2019-04-03T10:02:19.796Z,18.67
2019-04-03T10:04:46.653Z,18.90
2019-04-03T10:07:14.120Z,19.93
2019-04-03T10:09:43.138Z,19.13
2019-04-03T10:12:08.204Z,18.33
2019-04-03T10:14:34.254Z,19.27
2019-04-03T10:17:00.317Z,19.17
2019-04-03T10:19:26.348Z,18.23
2019-04-03T10:21:53.474Z,17.17
2019-04-03T10:24:19.646Z,17.60
2019-04-03T10:26:45.930Z,18.83
2019-04-03T10:29:12.040Z,17.60
2019-04-03T10:31:38.314Z,19.00
2019-04-03T10:34:04.720Z,19.13
2019-04-03T10:36:30.784Z,20.10
2019-04-03T10:38:56.901Z,20.00
2019-04-03T10:41:23.339Z,20.90
2019-04-03T10:43:49.338Z,19.97
2019-04-03T10:46:16.503Z,18.43
2019-04-03T10:48:43.763Z,18.77
2019-04-03T10:51:10.153Z,20.07
2019-04-03T10:53:36.708Z,17.20
2019-04-03T10:56:03.374Z,20.20
2019-04-03T10:58:29.491Z,18.47
2019-04-03T11:00:56.893Z,17.03
2019-04-03T11:03:26.157Z,17.80
2019-04-03T11:05:52.883Z,17.93
2019-04-03T11:08:19.079Z,16.10
2019-04-03T11:10:45.624Z,18.20
2019-04-03T11:13:11.633Z,16.83
2019-04-03T11:15:37.613Z,18.37
2019-04-03T11:18:03.870Z,15.63
2019-04-03T11:20:29.985Z,16.27
2019-04-03T11:23:06.098Z,18.30
2019-04-03T11:25:23.954Z,18.47
2019-04-03T11:27:50.146Z,17.50
2019-04-03T11:30:19.967Z,18.30
2019-04-03T11:32:45.195Z,18.50
2019-04-03T11:35:12.841Z,17.10
2019-04-03T11:37:38.842Z,16.57
2019-04-03T11:40:06.821Z,17.50
2019-04-03T11:42:33.314Z,17.73
2019-04-03T11:44:59.494Z,17.13
2019-04-03T11:47:25.725Z,18.13
2019-04-03T11:49:53.126Z,18.70
2019-04-03T11:52:19.635Z,16.80
2019-04-03T11:54:45.999Z,17.30
2019-04-03T11:57:12.183Z,16.50
2019-04-03T11:59:38.406Z,17.33
2019-04-03T12:02:07.515Z,17.80
2019-04-03T12:04:32.520Z,16.53
2019-04-03T12:06:58.648Z,17.00
2019-04-03T12:09:24.966Z,16.53
2019-04-03T12:11:53.082Z,17.17
2019-04-03T12:14:19.193Z,19.30
2019-04-03T12:16:46.108Z,18.97
2019-04-03T12:19:12.216Z,18.80
2019-04-03T12:21:38.313Z,20.17
2019-04-03T12:24:04.308Z,22.20
2019-04-03T12:26:30.923Z,21.40
2019-04-03T12:28:56.957Z,22.90
2019-04-03T12:31:23.207Z,22.40
2019-04-03T12:33:56.851Z,21.40
2019-04-03T12:36:17.165Z,22.63
2019-04-03T12:38:43.234Z,22.30
2019-04-03T12:41:10.215Z,22.33
2019-04-03T12:43:36.293Z,21.93
2019-04-03T12:46:03.131Z,21.47
2019-04-03T12:48:29.596Z,21.80
2019-04-03T12:50:56.908Z,23.10
2019-04-03T12:53:23.602Z,21.67
2019-04-03T12:55:49.645Z,21.40
2019-04-03T12:58:15.701Z,21.07
2019-04-03T13:00:41.710Z,21.80
2019-04-03T13:03:08.006Z,21.90
2019-04-03T13:05:36.343Z,22.70
2019-04-03T13:08:02.303Z,21.70
2019-04-03T13:10:40.326Z,20.67
2019-04-03T13:12:57.068Z,30.03
2019-04-03T13:15:23.660Z,29.03
2019-04-03T13:17:50.021Z,30.20
2019-04-03T13:20:16.799Z,37.70
2019-04-03T13:22:43.705Z,28.57
2019-04-03T13:25:10.242Z,78.07
2019-04-03T13:27:36.453Z,27.10
2019-04-03T13:30:11.144Z,48.63
2019-04-03T13:32:37.062Z,50.37
2019-04-03T13:35:05.902Z,30.97
2019-04-03T13:37:32.386Z,36.20
2019-04-03T13:40:00.330Z,27.03
2019-04-03T13:42:26.733Z,24.13
2019-04-03T13:44:52.950Z,23.23
2019-04-03T13:47:19.523Z,27.30
2019-04-03T13:49:49.358Z,25.07
2019-04-03T13:52:14.153Z,24.57
2019-04-03T13:54:40.247Z,25.87
2019-04-03T13:57:06.409Z,26.10
2019-04-03T13:59:32.480Z,25.23
2019-04-03T14:01:58.592Z,27.10
2019-04-03T14:04:24.907Z,24.40
2019-04-03T14:06:51.037Z,25.53
2019-04-03T14:09:17.689Z,24.43
2019-04-03T14:11:43.860Z,24.57
2019-04-03T14:14:15.065Z,25.30
2019-04-03T14:16:40.397Z,26.10
2019-04-03T14:19:06.529Z,24.60
2019-04-03T14:21:35.251Z,25.13
2019-04-03T14:24:01.212Z,25.70
2019-04-03T14:26:27.385Z,23.90
2019-04-03T14:28:53.443Z,26.50
2019-04-03T14:31:19.439Z,25.10
2019-04-03T14:33:46.993Z,23.20
2019-04-03T14:36:13.608Z,26.03
2019-04-03T14:38:39.928Z,24.60
2019-04-03T14:41:06.229Z,25.40
2019-04-03T14:43:33.604Z,27.67
2019-04-03T14:46:00.673Z,23.50
2019-04-03T14:48:27.543Z,26.83
2019-04-03T14:50:53.726Z,23.80
2019-04-03T14:53:20.161Z,25.07
2019-04-03T14:55:49.697Z,24.93
2019-04-03T14:58:15.587Z,25.97
2019-04-03T15:00:41.734Z,27.23
2019-04-03T15:03:08.331Z,26.73
2019-04-03T15:05:34.425Z,25.03
2019-04-03T15:08:00.880Z,25.17
2019-04-03T15:10:27.602Z,25.40
2019-04-03T15:12:53.773Z,24.90
2019-04-03T15:15:20.218Z,24.10
2019-04-03T15:17:46.633Z,26.67
2019-04-03T15:20:13.310Z,27.80
2019-04-03T15:22:39.570Z,27.50
2019-04-03T15:25:06.851Z,25.50
2019-04-03T15:27:32.980Z,27.83
2019-04-03T15:29:59.009Z,27.20
2019-04-03T15:32:25.051Z,25.33
2019-04-03T15:34:51.280Z,25.30
2019-04-03T15:37:17.366Z,29.97
2019-04-03T15:39:43.720Z,25.23
2019-04-03T15:42:09.833Z,35.53
2019-04-03T15:44:36.245Z,26.87
2019-04-03T15:47:02.550Z,27.27
2019-04-03T15:49:29.748Z,24.67
2019-04-03T15:51:55.896Z,27.33
2019-04-03T15:54:21.920Z,26.83
2019-04-03T15:56:47.969Z,29.43
2019-04-03T15:59:13.993Z,28.53
2019-04-03T16:01:40.523Z,25.33
2019-04-03T16:04:06.948Z,30.77
2019-04-03T16:06:33.479Z,26.80
2019-04-03T16:09:01.141Z,29.23
2019-04-03T16:11:29.817Z,26.30
2019-04-03T16:13:55.170Z,26.87
2019-04-03T16:16:21.678Z,28.07
2019-04-03T16:18:48.260Z,29.40
2019-04-03T16:21:15.035Z,26.90
2019-04-03T16:23:41.099Z,28.57
2019-04-03T16:26:07.118Z,28.00
2019-04-03T16:28:35.047Z,28.23
2019-04-03T16:31:01.607Z,28.10
2019-04-03T16:33:27.838Z,28.83
2019-04-03T16:35:53.985Z,27.10
2019-04-03T16:38:20.646Z,28.63
2019-04-03T16:40:47.464Z,28.97
2019-04-03T16:43:13.949Z,30.33
2019-04-03T16:45:40.131Z,30.40
2019-04-03T16:48:06.611Z,31.57
2019-04-03T16:50:32.884Z,29.00
2019-04-03T16:52:58.992Z,31.70
2019-04-03T16:55:25.144Z,28.97
2019-04-03T16:57:53.505Z,29.37
2019-04-03T17:00:21.761Z,30.00
2019-04-03T17:02:48.516Z,32.43
2019-04-03T17:05:15.164Z,33.83
2019-04-03T17:07:41.784Z,32.23
2019-04-03T17:10:09.997Z,29.37
2019-04-03T17:12:36.607Z,29.87
2019-04-03T17:15:04.751Z,28.90
2019-04-03T17:17:31.467Z,29.93
2019-04-03T17:19:57.686Z,27.50
2019-04-03T17:22:23.857Z,27.03
2019-04-03T17:24:54.396Z,29.50
2019-04-03T17:27:17.914Z,27.97
2019-04-03T17:29:46.572Z,28.17
2019-04-03T17:32:12.465Z,28.50
2019-04-03T17:34:42.008Z,31.13
2019-04-03T17:37:06.810Z,38.67
2019-04-03T17:39:33.921Z,46.83
2019-04-03T17:42:00.837Z,39.60
2019-04-03T17:44:26.866Z,81.13
2019-04-03T17:46:52.992Z,61.33
2019-04-03T17:49:19.092Z,142.80
2019-04-03T17:51:45.312Z,68.97
2019-04-03T17:54:13.860Z,78.70
2019-04-03T17:56:41.039Z,47.00
2019-04-03T17:59:07.586Z,34.53
2019-04-03T18:01:33.645Z,37.80
2019-04-03T18:03:59.639Z,29.90
2019-04-03T18:06:27.140Z,28.90
2019-04-03T18:08:53.793Z,27.33
2019-04-03T18:11:19.780Z,26.20
2019-04-03T18:13:48.497Z,25.87
2019-04-03T18:16:14.072Z,25.47
2019-04-03T18:18:40.644Z,27.50
2019-04-03T18:21:06.788Z,28.63
2019-04-03T18:23:33.038Z,26.33
2019-04-03T18:25:59.711Z,27.33
2019-04-03T18:28:26.327Z,25.17
2019-04-03T18:30:52.927Z,26.40
2019-04-03T18:33:19.040Z,27.40
2019-04-03T18:35:45.139Z,28.07
2019-04-03T18:38:11.291Z,27.63
2019-04-03T18:40:37.368Z,25.60
2019-04-03T18:43:03.397Z,27.97
2019-04-03T18:45:29.503Z,28.20
2019-04-03T18:47:55.685Z,28.93
2019-04-03T18:50:21.777Z,31.20
2019-04-03T18:52:47.836Z,27.77
2019-04-03T18:55:14.645Z,26.93
2019-04-03T18:57:40.897Z,27.33
2019-04-03T19:00:07.665Z,29.27
2019-04-03T19:02:34.553Z,30.13
2019-04-03T19:05:02.604Z,28.13
2019-04-03T19:07:28.839Z,29.10
2019-04-03T19:10:06.444Z,30.87
2019-04-03T19:12:34.603Z,28.63
2019-04-03T19:14:50.764Z,32.10
2019-04-03T19:17:16.897Z,28.53
2019-04-03T19:19:43.008Z,30.03
2019-04-03T19:22:10.378Z,29.20
2019-04-03T19:24:36.367Z,28.87
2019-04-03T19:27:03.048Z,29.70
2019-04-03T19:29:31.437Z,28.57
2019-04-03T19:31:57.563Z,29.00
2019-04-03T19:34:23.628Z,28.13
2019-04-03T19:36:49.685Z,30.67
2019-04-03T19:39:15.741Z,31.90
2019-04-03T19:41:42.731Z,30.13
2019-04-03T19:44:09.260Z,28.77
2019-04-03T19:46:35.584Z,31.20
2019-04-03T19:49:01.645Z,30.40
2019-04-03T19:51:27.732Z,29.80
2019-04-03T19:53:59.581Z,41.63
2019-04-03T19:56:21.752Z,39.60
2019-04-03T19:58:47.759Z,30.03
2019-04-03T20:01:13.931Z,30.00
2019-04-03T20:03:39.921Z,29.67
2019-04-03T20:06:06.025Z,29.40
2019-04-03T20:08:32.045Z,30.23
2019-04-03T20:10:58.179Z,28.20
2019-04-03T20:13:24.188Z,29.03
2019-04-03T20:15:53.592Z,27.73
2019-04-03T20:18:18.121Z,28.97
2019-04-03T20:20:44.198Z,28.47
2019-04-03T20:23:10.698Z,27.50
2019-04-03T20:25:37.519Z,28.60
2019-04-03T20:28:03.640Z,28.20
2019-04-03T20:30:30.885Z,28.07
2019-04-03T20:32:58.018Z,27.10
2019-04-03T20:35:24.187Z,28.27
2019-04-03T20:37:50.332Z,30.10
2019-04-03T20:40:16.464Z,32.03
2019-04-03T20:42:42.799Z,31.00
2019-04-03T20:45:09.197Z,28.70
2019-04-03T20:47:35.321Z,29.80
2019-04-03T20:50:01.553Z,28.70
2019-04-03T20:52:29.135Z,27.27
2019-04-03T20:54:55.244Z,28.53
2019-04-03T20:57:21.604Z,27.70
2019-04-03T20:59:58.618Z,28.20
2019-04-03T21:02:15.641Z,27.07
2019-04-03T21:04:41.748Z,27.83
2019-04-03T21:07:07.975Z,27.77
2019-04-03T21:09:33.976Z,27.90
2019-04-03T21:11:59.980Z,27.10
2019-04-03T21:14:26.096Z,28.10
2019-04-03T21:16:52.123Z,26.30
2019-04-03T21:19:21.230Z,27.03
2019-04-03T21:21:46.328Z,26.67
2019-04-03T21:24:12.426Z,26.37
2019-04-03T21:26:39.355Z,26.53
2019-04-03T21:29:05.336Z,26.00
2019-04-03T21:31:31.396Z,25.10
2019-04-03T21:33:57.750Z,26.30
2019-04-03T21:36:23.856Z,25.20
2019-04-03T21:38:49.949Z,24.47
2019-04-03T21:41:16.090Z,26.93
2019-04-03T21:43:42.108Z,26.17
2019-04-03T21:46:08.937Z,25.47
2019-04-03T21:48:35.524Z,24.27
2019-04-03T21:51:01.533Z,24.20
2019-04-03T21:53:27.621Z,25.40
2019-04-03T21:55:53.644Z,25.93
2019-04-03T21:58:19.664Z,24.90
2019-04-03T22:00:58.626Z,23.57
2019-04-03T22:03:24.914Z,25.70
2019-04-03T22:05:50.936Z,23.53
2019-04-03T22:08:17.286Z,24.73
2019-04-03T22:10:43.274Z,23.47
2019-04-03T22:13:09.263Z,24.10
2019-04-03T22:15:35.422Z,24.43
2019-04-03T22:18:01.518Z,23.10
2019-04-03T22:20:27.707Z,25.33
2019-04-03T22:22:55.424Z,23.13
2019-04-03T22:25:21.504Z,22.40
2019-04-03T22:27:47.500Z,22.83
2019-04-03T22:30:13.667Z,22.73
2019-04-03T22:32:39.672Z,21.97
2019-04-03T22:35:05.988Z,24.23
2019-04-03T22:37:33.232Z,24.20
2019-04-03T22:39:59.980Z,21.37
2019-04-03T22:42:26.153Z,21.30
2019-04-03T22:44:52.159Z,22.47
2019-04-03T22:47:18.246Z,22.33
2019-04-03T22:49:44.258Z,21.10
2019-04-03T22:52:10.347Z,21.67
2019-04-03T22:54:36.440Z,22.87
2019-04-03T22:57:02.450Z,23.80
2019-04-03T22:59:28.757Z,21.87
2019-04-03T23:01:54.744Z,23.50
2019-04-03T23:04:20.849Z,22.93
2019-04-03T23:06:49.333Z,22.07
2019-04-03T23:09:15.025Z,21.63
2019-04-03T23:11:41.026Z,21.83
2019-04-03T23:14:07.550Z,22.00
2019-04-03T23:16:33.684Z,21.40
2019-04-03T23:18:59.704Z,20.23
2019-04-03T23:21:25.884Z,22.00
2019-04-03T23:23:51.951Z,20.33
2019-04-03T23:26:18.016Z,21.80
2019-04-03T23:28:44.081Z,20.60
2019-04-03T23:31:11.113Z,21.53
2019-04-03T23:33:38.577Z,21.37
2019-04-03T23:36:04.564Z,20.77
2019-04-03T23:38:30.935Z,20.53
2019-04-03T23:40:57.047Z,20.10
2019-04-03T23:43:23.377Z,21.40
2019-04-03T23:45:49.372Z,20.17
2019-04-03T23:48:17.466Z,19.00
2019-04-03T23:50:43.317Z,21.53
2019-04-03T23:53:09.302Z,20.10
2019-04-03T23:55:36.306Z,19.13
2019-04-03T23:58:02.814Z,18.83
